createdAt,value
2023-01-25T05:00:53.991Z,2.40
2023-01-25T05:03:27.407Z,2.30
2023-01-25T05:05:59.300Z,2.20
2023-01-25T05:08:30.956Z,2.10
2023-01-25T05:11:02.584Z,2.10
2023-01-25T05:16:09.121Z,1.00
2023-01-25T05:18:48.539Z,2.00
2023-01-25T05:21:20.770Z,2.00
2023-01-25T05:23:52.492Z,2.00
2023-01-25T05:26:24.265Z,1.90
2023-01-25T05:28:55.933Z,1.90
2023-01-25T05:31:28.983Z,1.90
2023-01-25T05:34:00.743Z,1.90
2023-01-25T05:36:32.399Z,2.10
2023-01-25T05:41:37.116Z,2.60
2023-01-25T05:44:08.833Z,2.10
2023-01-25T05:46:41.848Z,2.10
2023-01-25T05:49:13.674Z,2.10
2023-01-25T05:51:45.311Z,2.10
2023-01-25T05:54:17.259Z,2.10
2023-01-25T05:56:49.270Z,2.10
2023-01-25T05:59:20.927Z,2.10
2023-01-25T06:01:54.259Z,2.00
2023-01-25T06:04:26.098Z,1.90
2023-01-25T06:06:57.753Z,2.10
2023-01-25T06:09:29.401Z,1.90
2023-01-25T06:12:01.034Z,1.90
2023-01-25T06:14:32.706Z,1.90
2023-01-25T06:17:05.929Z,1.90
2023-01-25T06:19:37.660Z,1.90
2023-01-25T06:22:09.915Z,1.90
2023-01-25T06:24:41.574Z,1.90
2023-01-25T06:27:13.270Z,2.00
2023-01-25T06:29:44.945Z,2.00
2023-01-25T06:32:17.990Z,1.90
2023-01-25T06:34:49.663Z,2.00
2023-01-25T06:37:21.294Z,2.00
2023-01-25T06:39:53.104Z,1.90
2023-01-25T06:42:24.916Z,1.90
2023-01-25T06:44:56.642Z,1.90
2023-01-25T06:47:29.633Z,1.80
2023-01-25T06:50:01.294Z,2.70
2023-01-25T06:52:32.976Z,2.00
2023-01-25T06:55:04.999Z,1.90
2023-01-25T06:57:36.669Z,1.80
2023-01-25T07:00:09.511Z,1.80
2023-01-25T07:02:42.585Z,1.70
2023-01-25T07:05:14.391Z,1.70
2023-01-25T07:07:46.541Z,1.80
2023-01-25T07:10:18.212Z,1.80
2023-01-25T07:12:49.874Z,1.80
2023-01-25T07:15:21.547Z,1.80
2023-01-25T07:17:54.551Z,1.80
2023-01-25T07:20:26.206Z,1.90
2023-01-25T07:23:00.562Z,1.80
2023-01-25T07:25:33.966Z,1.90
2023-01-25T07:28:05.642Z,1.90
2023-01-25T07:30:37.281Z,1.80
2023-01-25T07:33:10.382Z,1.80
2023-01-25T07:35:42.020Z,1.90
2023-01-25T07:38:14.785Z,1.90
2023-01-25T07:40:51.646Z,1.90
2023-01-25T07:46:00.378Z,1.80
2023-01-25T07:48:33.405Z,1.90
2023-01-25T07:51:06.345Z,1.80
2023-01-25T07:53:38.364Z,1.90
2023-01-25T07:56:11.044Z,1.90
2023-01-25T07:58:42.727Z,1.90
2023-01-25T08:01:15.372Z,1.80
2023-01-25T08:03:48.942Z,1.80
2023-01-25T08:06:23.431Z,1.80
2023-01-25T08:08:55.101Z,1.70
2023-01-25T08:11:27.749Z,1.90
2023-01-25T08:13:59.389Z,1.90
2023-01-25T08:16:31.419Z,2.00
2023-01-25T08:19:04.469Z,2.00
2023-01-25T08:21:36.119Z,2.00
2023-01-25T08:24:08.166Z,2.00
2023-01-25T08:26:39.847Z,2.00
2023-01-25T08:29:11.730Z,1.90
2023-01-25T08:31:43.424Z,2.00
2023-01-25T08:34:16.430Z,1.80
2023-01-25T08:36:48.108Z,1.80
2023-01-25T08:39:19.791Z,1.90
2023-01-25T08:41:51.437Z,1.80
2023-01-25T08:44:23.122Z,1.90
2023-01-25T08:46:54.751Z,2.00
2023-01-25T08:49:27.732Z,2.00
2023-01-25T08:51:59.375Z,2.00
2023-01-25T08:54:31.232Z,2.00
2023-01-25T08:57:03.000Z,2.20
2023-01-25T08:59:34.689Z,2.00
2023-01-25T09:02:06.377Z,2.10
2023-01-25T09:04:39.370Z,2.00
2023-01-25T09:07:11.033Z,2.00
2023-01-25T09:09:42.746Z,1.90
2023-01-25T09:12:14.410Z,1.90
2023-01-25T09:14:46.070Z,2.00
2023-01-25T09:17:17.688Z,1.90
2023-01-25T09:22:23.267Z,2.30
2023-01-25T09:24:54.953Z,2.00
2023-01-25T09:27:26.606Z,2.20
2023-01-25T09:30:02.168Z,2.10
2023-01-25T09:32:34.898Z,1.90
2023-01-25T09:35:08.306Z,2.00
2023-01-25T09:37:39.974Z,2.00
2023-01-25T09:40:14.104Z,1.90
2023-01-25T09:42:58.366Z,2.00
2023-01-25T09:45:31.397Z,2.00
2023-01-25T09:48:09.803Z,2.20
2023-01-25T09:50:53.412Z,2.20
2023-01-25T09:53:33.539Z,1.90
2023-01-25T09:56:10.249Z,1.90
2023-01-25T09:58:44.571Z,1.80
2023-01-25T10:01:36.603Z,1.80
2023-01-25T10:04:13.050Z,1.80
2023-01-25T10:07:02.719Z,1.70
2023-01-25T10:09:37.711Z,1.80
2023-01-25T10:12:14.772Z,1.70
2023-01-25T10:14:46.514Z,1.70
2023-01-25T10:17:23.783Z,1.70
2023-01-25T10:20:03.132Z,1.70
2023-01-25T10:22:38.736Z,1.80
2023-01-25T10:25:23.229Z,1.80
2023-01-25T10:28:03.276Z,1.90
2023-01-25T10:30:37.665Z,1.90
2023-01-25T10:33:12.781Z,1.90
2023-01-25T10:35:47.229Z,1.90
2023-01-25T10:38:24.463Z,1.90
2023-01-25T10:40:58.687Z,1.90
2023-01-25T10:43:30.388Z,1.90
2023-01-25T10:46:02.160Z,2.00
2023-01-25T10:48:35.136Z,2.00
2023-01-25T10:51:06.809Z,1.90
2023-01-25T10:53:39.851Z,1.90
2023-01-25T10:56:23.472Z,2.00
2023-01-25T10:59:06.521Z,1.90
2023-01-25T11:01:38.273Z,1.90
2023-01-25T11:04:32.681Z,1.90
2023-01-25T11:07:04.521Z,2.00
2023-01-25T11:09:38.602Z,1.90
2023-01-25T11:12:17.532Z,1.90
2023-01-25T11:14:49.660Z,1.90
2023-01-25T11:17:23.869Z,1.90
2023-01-25T11:20:07.873Z,2.10
2023-01-25T11:22:39.802Z,2.00
2023-01-25T11:25:29.496Z,2.00
2023-01-25T11:28:11.088Z,2.10
2023-01-25T11:30:42.796Z,2.10
2023-01-25T11:33:15.430Z,2.10
2023-01-25T11:35:59.512Z,2.00
2023-01-25T11:38:31.145Z,1.80
2023-01-25T11:41:09.667Z,2.00
2023-01-25T11:43:55.894Z,2.00
2023-01-25T11:46:34.289Z,2.00
2023-01-25T11:49:12.650Z,2.10
2023-01-25T11:51:49.986Z,2.10
2023-01-25T11:54:31.306Z,2.10
2023-01-25T11:57:09.299Z,2.00
2023-01-25T11:59:52.687Z,2.00
2023-01-25T12:02:49.235Z,2.10
2023-01-25T12:05:28.386Z,2.10
2023-01-25T12:08:07.744Z,2.00
2023-01-25T12:10:42.654Z,1.90
2023-01-25T12:13:18.230Z,1.80
2023-01-25T12:15:57.398Z,1.90
2023-01-25T12:18:47.211Z,1.70
2023-01-25T12:21:31.295Z,1.80
2023-01-25T12:24:16.087Z,1.80
2023-01-25T12:26:51.489Z,1.90
2023-01-25T12:29:29.161Z,2.10
2023-01-25T12:32:02.333Z,1.80
2023-01-25T12:34:35.964Z,1.80
2023-01-25T12:37:12.132Z,1.80
2023-01-25T12:39:46.373Z,1.80
2023-01-25T12:42:19.978Z,1.70
2023-01-25T12:44:56.206Z,1.70
2023-01-25T12:47:30.332Z,1.70
2023-01-25T12:50:04.558Z,1.60
2023-01-25T12:52:37.489Z,1.60
2023-01-25T12:55:13.310Z,1.60
2023-01-25T12:57:49.186Z,1.60
2023-01-25T13:00:23.584Z,1.70
2023-01-25T13:03:09.515Z,1.80
2023-01-25T13:05:44.092Z,1.80
2023-01-25T13:08:31.025Z,1.80
2023-01-25T13:11:10.238Z,1.80
2023-01-25T13:13:41.908Z,1.70
2023-01-25T13:16:31.596Z,2.40
2023-01-25T13:19:03.257Z,1.70
2023-01-25T13:21:42.823Z,1.70
2023-01-25T13:24:19.532Z,1.80
2023-01-25T13:27:04.495Z,1.70
2023-01-25T13:29:45.065Z,1.80
2023-01-25T13:33:04.482Z,1.80
2023-01-25T13:35:46.399Z,1.80
2023-01-25T13:38:33.795Z,1.80
2023-01-25T13:41:15.696Z,2.30
2023-01-25T13:43:48.324Z,1.90
2023-01-25T13:46:21.691Z,1.90
2023-01-25T13:49:01.617Z,1.90
2023-01-25T13:51:36.558Z,2.00
2023-01-25T13:54:15.339Z,2.00
2023-01-25T13:56:46.999Z,2.10
2023-01-25T13:59:25.254Z,2.10
2023-01-25T14:01:57.394Z,2.10
2023-01-25T14:04:29.568Z,2.10
2023-01-25T14:07:02.561Z,2.10
2023-01-25T14:09:34.220Z,2.10
2023-01-25T14:12:06.491Z,2.10
2023-01-25T14:14:38.257Z,2.20
2023-01-25T14:17:16.884Z,2.20
2023-01-25T14:19:49.032Z,2.20
2023-01-25T14:22:23.978Z,2.20
2023-01-25T14:25:06.870Z,2.20
2023-01-25T14:27:42.328Z,2.20
2023-01-25T14:30:23.821Z,2.20
2023-01-25T14:32:56.220Z,2.20
2023-01-25T14:35:55.119Z,2.20
2023-01-25T14:38:30.138Z,2.20
2023-01-25T14:41:06.025Z,2.10
2023-01-25T14:43:37.711Z,2.20
2023-01-25T14:46:19.807Z,2.10
2023-01-25T14:48:51.618Z,2.10
2023-01-25T14:51:25.984Z,2.10
2023-01-25T14:54:00.788Z,2.10
2023-01-25T14:56:40.508Z,2.10
2023-01-25T14:59:30.740Z,2.10
2023-01-25T15:02:03.814Z,2.10
2023-01-25T15:04:35.817Z,2.00
2023-01-25T15:07:34.037Z,2.00
2023-01-25T15:10:15.260Z,2.00
2023-01-25T15:13:04.222Z,2.00
2023-01-25T15:15:50.058Z,1.90
2023-01-25T15:18:40.842Z,1.80
2023-01-25T15:21:12.889Z,1.90
2023-01-25T15:23:45.312Z,1.80
2023-01-25T15:26:22.129Z,1.80
2023-01-25T15:28:54.603Z,1.80
2023-01-25T15:31:27.327Z,1.70
2023-01-25T15:33:59.201Z,1.70
2023-01-25T15:36:31.510Z,1.70
2023-01-25T15:39:03.193Z,1.70
2023-01-25T15:41:36.172Z,1.80
2023-01-25T15:44:08.006Z,1.80
2023-01-25T15:46:40.880Z,1.80
2023-01-25T15:49:16.329Z,1.90
2023-01-25T15:51:47.980Z,2.10
2023-01-25T15:54:19.608Z,1.90
2023-01-25T15:56:54.726Z,1.80
2023-01-25T15:59:26.367Z,1.90
2023-01-25T16:01:58.039Z,1.90
2023-01-25T16:04:29.667Z,1.90
2023-01-25T16:07:01.307Z,1.90
2023-01-25T16:09:32.965Z,1.90
2023-01-25T16:12:06.303Z,1.90
2023-01-25T16:14:37.931Z,1.90
2023-01-25T16:17:15.575Z,1.90
2023-01-25T16:19:47.242Z,1.90
2023-01-25T16:22:18.913Z,1.90
2023-01-25T16:24:50.573Z,1.90
2023-01-25T16:27:23.569Z,1.90
2023-01-25T16:29:55.219Z,2.00
2023-01-25T16:32:26.883Z,1.90
2023-01-25T16:34:58.584Z,1.90
2023-01-25T16:37:30.317Z,2.00
2023-01-25T16:40:02.007Z,2.00
2023-01-25T16:42:35.122Z,1.90
2023-01-25T16:45:07.970Z,1.90
2023-01-25T16:47:39.600Z,1.90
2023-01-25T16:50:12.895Z,1.80
2023-01-25T16:52:44.580Z,2.00
2023-01-25T16:55:16.531Z,1.80
2023-01-25T16:57:50.628Z,1.70
2023-01-25T17:00:22.627Z,1.70
2023-01-25T17:02:59.503Z,1.70
2023-01-25T17:05:33.734Z,1.70
2023-01-25T17:08:05.460Z,1.60
2023-01-25T17:10:37.198Z,1.70
2023-01-25T17:13:10.159Z,1.70
2023-01-25T17:15:42.122Z,1.60
2023-01-25T17:18:13.881Z,1.60
2023-01-25T17:20:45.539Z,1.60
2023-01-25T17:23:17.186Z,1.50
2023-01-25T17:25:48.850Z,1.50
2023-01-25T17:28:21.880Z,1.50
2023-01-25T17:30:54.669Z,1.50
2023-01-25T17:33:26.508Z,1.40
2023-01-25T17:36:01.644Z,1.30
2023-01-25T17:38:33.403Z,1.10
2023-01-25T17:41:05.310Z,1.10
2023-01-25T17:43:38.370Z,1.10
2023-01-25T17:46:13.221Z,1.10
2023-01-25T17:48:44.892Z,1.10
2023-01-25T17:51:16.554Z,1.20
2023-01-25T17:53:48.206Z,1.30
2023-01-25T17:56:20.040Z,1.30
2023-01-25T17:58:53.072Z,1.30
2023-01-25T18:01:26.571Z,1.30
2023-01-25T18:03:58.390Z,1.20
2023-01-25T18:06:30.842Z,1.20
2023-01-25T18:09:02.990Z,1.10
2023-01-25T18:11:35.809Z,1.00
2023-01-25T18:14:10.120Z,0.90
2023-01-25T18:16:41.774Z,0.90
2023-01-25T18:19:13.620Z,0.90
2023-01-25T18:21:45.283Z,0.90
2023-01-25T18:24:25.497Z,1.00
2023-01-25T18:27:00.236Z,1.10
2023-01-25T18:29:45.868Z,1.10
2023-01-25T18:32:17.496Z,1.10
2023-01-25T18:34:49.189Z,1.10
2023-01-25T18:37:21.165Z,1.10
2023-01-25T18:39:53.525Z,1.20
2023-01-25T18:42:25.487Z,1.10
2023-01-25T18:44:58.461Z,1.10
2023-01-25T18:47:30.108Z,1.00
2023-01-25T18:50:01.728Z,1.00
2023-01-25T18:52:34.416Z,1.10
2023-01-25T18:55:06.568Z,1.00
2023-01-25T18:57:38.167Z,1.00
2023-01-25T19:00:12.369Z,1.00
2023-01-25T19:02:44.182Z,0.90
2023-01-25T19:05:15.987Z,0.90
2023-01-25T19:07:47.614Z,1.00
2023-01-25T19:10:19.260Z,1.00
2023-01-25T19:12:50.937Z,1.00
2023-01-25T19:15:23.911Z,0.90
2023-01-25T19:17:55.529Z,0.70
2023-01-25T19:20:27.161Z,0.60
2023-01-25T19:22:58.786Z,0.70
2023-01-25T19:25:30.399Z,0.70
2023-01-25T19:28:02.020Z,0.80
2023-01-25T19:30:34.991Z,0.80
2023-01-25T19:33:06.627Z,0.80
2023-01-25T19:35:38.296Z,0.80
2023-01-25T19:38:09.938Z,0.80
2023-01-25T19:40:41.562Z,-0.10
2023-01-25T19:45:46.541Z,1.40
2023-01-25T19:48:18.150Z,0.80
2023-01-25T19:50:49.800Z,0.70
2023-01-25T19:53:21.407Z,0.70
2023-01-25T19:55:53.048Z,0.70
2023-01-25T19:58:26.244Z,0.70
2023-01-25T20:01:06.645Z,0.70
2023-01-25T20:03:38.304Z,0.70
2023-01-25T20:06:10.295Z,0.70
2023-01-25T20:08:43.105Z,0.60
2023-01-25T20:11:15.509Z,0.60
2023-01-25T20:13:47.280Z,0.50
2023-01-25T20:16:20.333Z,0.50
2023-01-25T20:18:52.074Z,0.50
2023-01-25T20:21:24.217Z,0.60
2023-01-25T20:23:56.779Z,0.60
2023-01-25T20:26:29.317Z,0.60
2023-01-25T20:29:00.989Z,0.60
2023-01-25T20:31:34.941Z,0.60
2023-01-25T20:34:07.428Z,0.60
2023-01-25T20:36:39.231Z,0.60
2023-01-25T20:39:11.774Z,0.60
2023-01-25T20:41:43.433Z,0.60
2023-01-25T20:44:15.802Z,0.60
2023-01-25T20:46:48.788Z,0.60
2023-01-25T20:49:20.462Z,0.60
2023-01-25T20:51:52.077Z,0.70
2023-01-25T20:54:23.722Z,0.70
2023-01-25T20:56:55.491Z,0.60
2023-01-25T20:59:27.135Z,0.60
2023-01-25T21:02:01.870Z,0.60
2023-01-25T21:04:33.499Z,0.60
2023-01-25T21:07:05.123Z,0.60
2023-01-25T21:09:36.731Z,0.60
2023-01-25T21:12:08.373Z,0.60
2023-01-25T21:14:39.981Z,0.60
2023-01-25T21:17:12.985Z,0.70
2023-01-25T21:19:44.612Z,0.60
2023-01-25T21:22:16.283Z,0.60
2023-01-25T21:24:47.901Z,0.60
2023-01-25T21:27:19.557Z,0.50
2023-01-25T21:29:51.235Z,0.50
2023-01-25T21:32:24.256Z,0.50
2023-01-25T21:34:55.863Z,0.50
2023-01-25T21:37:28.824Z,0.50
2023-01-25T21:40:00.440Z,0.50
2023-01-25T21:42:32.492Z,0.50
2023-01-25T21:45:05.131Z,0.50
2023-01-25T21:47:38.114Z,0.50
2023-01-25T21:50:10.941Z,0.50
2023-01-25T21:52:42.782Z,0.50
2023-01-25T21:55:14.515Z,0.50
2023-01-25T21:57:46.207Z,0.50
2023-01-25T22:00:18.685Z,0.40
2023-01-25T22:02:52.043Z,0.40
2023-01-25T22:05:23.786Z,0.40
2023-01-25T22:07:55.383Z,0.20
2023-01-25T22:10:27.029Z,0.20
2023-01-25T22:12:58.685Z,0.20
2023-01-25T22:15:30.316Z,0.20
2023-01-25T22:18:03.476Z,0.20
2023-01-25T22:20:35.118Z,0.20
2023-01-25T22:23:06.720Z,0.00
2023-01-25T22:25:38.394Z,0.00
2023-01-25T22:28:10.017Z,0.00
2023-01-25T22:30:41.689Z,0.00
2023-01-25T22:33:15.772Z,0.10
2023-01-25T22:35:47.407Z,0.10
2023-01-25T22:38:19.057Z,0.10
2023-01-25T22:40:50.679Z,0.10
2023-01-25T22:43:22.293Z,0.00
2023-01-25T22:45:53.996Z,0.00
2023-01-25T22:48:27.019Z,0.10
2023-01-25T22:51:01.958Z,0.10
2023-01-25T22:53:33.733Z,0.10
2023-01-25T22:56:07.001Z,0.00
2023-01-25T22:58:39.539Z,0.10
